createdAt,value
2023-03-10T00:01:46.323Z,10.10
2023-03-10T00:06:49.418Z,10.10
2023-03-10T00:11:53.884Z,10.10
2023-03-10T00:16:57.016Z,10.20
2023-03-10T00:22:00.309Z,10.20
2023-03-10T00:27:04.896Z,10.20
2023-03-10T00:32:08.714Z,10.20
2023-03-10T00:37:11.885Z,10.20
2023-03-10T00:42:16.375Z,10.30
2023-03-10T00:47:19.604Z,10.40
2023-03-10T00:52:22.754Z,10.50
2023-03-10T00:57:27.287Z,10.60
2023-03-10T01:02:30.467Z,10.70
2023-03-10T01:07:33.594Z,10.80
2023-03-10T01:12:38.058Z,10.80
2023-03-10T01:17:41.207Z,10.80
2023-03-10T01:22:44.733Z,10.80
2023-03-10T01:27:49.182Z,10.70
2023-03-10T01:32:52.395Z,10.70
2023-03-10T01:37:55.522Z,10.60
2023-03-10T01:43:18.947Z,10.70
2023-03-10T01:48:24.688Z,10.60
2023-03-10T01:53:29.580Z,10.60
2023-03-10T01:58:38.829Z,10.60
2023-03-10T02:03:47.530Z,10.60
2023-03-10T02:08:53.699Z,10.70
2023-03-10T02:13:58.325Z,10.80
2023-03-10T02:19:01.512Z,10.80
2023-03-10T02:24:10.193Z,10.70
2023-03-10T02:29:21.554Z,10.70
2023-03-10T02:34:25.894Z,10.70
2023-03-10T02:39:29.009Z,10.60
2023-03-10T02:44:33.845Z,10.60
2023-03-10T02:49:38.556Z,10.60
2023-03-10T02:54:41.640Z,10.60
2023-03-10T02:59:46.162Z,10.70
2023-03-10T03:04:49.280Z,10.70
2023-03-10T03:09:52.450Z,10.80
2023-03-10T03:14:56.936Z,10.80
2023-03-10T03:20:00.212Z,10.80
2023-03-10T03:25:03.379Z,10.80
2023-03-10T03:30:10.815Z,10.80
2023-03-10T03:35:16.299Z,10.80
2023-03-10T03:40:19.790Z,10.80
2023-03-10T03:45:25.873Z,10.80
2023-03-10T03:50:29.556Z,10.70
2023-03-10T03:55:32.713Z,10.70
2023-03-10T04:00:38.663Z,10.70
2023-03-10T04:05:41.817Z,10.70
2023-03-10T04:10:50.927Z,10.70
2023-03-10T04:15:58.330Z,10.60
2023-03-10T04:21:01.502Z,10.60
2023-03-10T04:26:08.384Z,10.60
2023-03-10T04:31:17.031Z,10.60
2023-03-10T04:36:20.984Z,10.70
2023-03-10T04:41:24.365Z,10.70
2023-03-10T04:46:29.090Z,10.70
2023-03-10T04:51:32.274Z,10.70
2023-03-10T04:56:35.446Z,10.70
2023-03-10T05:01:39.957Z,10.80
2023-03-10T05:06:43.140Z,10.80
2023-03-10T05:11:46.424Z,11.00
2023-03-10T05:16:50.887Z,11.10
2023-03-10T05:21:54.591Z,11.40
2023-03-10T05:26:57.718Z,11.60
2023-03-10T05:32:02.267Z,11.90
2023-03-10T05:37:05.545Z,12.10
2023-03-10T05:42:08.723Z,12.20
2023-03-10T05:47:14.136Z,12.30
2023-03-10T05:52:17.680Z,12.30
2023-03-10T05:57:21.280Z,12.40
2023-03-10T06:02:25.773Z,12.40
2023-03-10T06:07:28.869Z,12.40
2023-03-10T06:12:33.721Z,12.40
2023-03-10T06:17:38.274Z,12.40
2023-03-10T06:22:41.475Z,12.40
2023-03-10T06:27:45.832Z,12.40
2023-03-10T06:32:50.346Z,12.40
2023-03-10T06:37:53.543Z,12.50
2023-03-10T06:42:56.641Z,12.50
2023-03-10T06:48:01.120Z,12.60
2023-03-10T06:53:04.221Z,12.60
2023-03-10T06:58:07.840Z,12.60
2023-03-10T07:03:12.843Z,12.60
2023-03-10T07:08:15.917Z,12.70
2023-03-10T07:13:19.227Z,12.60
2023-03-10T07:18:27.777Z,12.70
2023-03-10T07:23:30.898Z,12.70
2023-03-10T07:28:34.027Z,12.80
2023-03-10T07:33:39.278Z,13.00
2023-03-10T07:38:42.345Z,13.20
2023-03-10T07:43:45.433Z,13.40
2023-03-10T07:48:49.933Z,13.60
2023-03-10T07:53:53.430Z,13.80
2023-03-10T07:58:56.528Z,14.00
2023-03-10T08:04:01.296Z,14.10
2023-03-10T08:09:04.814Z,14.30
2023-03-10T08:14:08.050Z,14.40
2023-03-10T08:19:12.514Z,14.50
2023-03-10T08:24:15.678Z,14.60
2023-03-10T08:29:19.102Z,14.60
2023-03-10T08:34:23.786Z,14.70
2023-03-10T08:39:27.749Z,14.80
2023-03-10T08:44:30.986Z,14.90
2023-03-10T08:49:35.614Z,14.90
2023-03-10T08:54:38.754Z,14.90
2023-03-10T08:59:41.832Z,14.90
2023-03-10T09:04:46.348Z,15.00
2023-03-10T09:09:49.467Z,15.00
2023-03-10T09:14:52.598Z,15.20
2023-03-10T09:19:57.084Z,15.30
2023-03-10T09:25:00.857Z,15.40
2023-03-10T09:30:04.171Z,15.50
2023-03-10T09:35:09.201Z,15.70
2023-03-10T09:40:16.723Z,15.80
2023-03-10T09:45:26.363Z,16.00
2023-03-10T09:50:35.782Z,16.20
2023-03-10T09:55:47.361Z,16.20
2023-03-10T10:00:51.331Z,16.30
2023-03-10T10:05:57.744Z,16.20
2023-03-10T10:11:02.516Z,16.20
2023-03-10T10:16:31.974Z,16.10
2023-03-10T10:21:44.176Z,15.70
2023-03-10T10:26:47.276Z,15.20
2023-03-10T10:32:11.188Z,14.70
2023-03-10T10:37:29.829Z,14.30
2023-03-10T10:42:34.661Z,14.10
2023-03-10T10:47:48.004Z,14.10
2023-03-10T10:53:13.779Z,14.10
2023-03-10T10:58:30.869Z,14.20
2023-03-10T11:03:36.918Z,14.30
2023-03-10T11:08:45.038Z,14.30
2023-03-10T11:14:07.602Z,14.30
2023-03-10T11:19:19.145Z,14.50
2023-03-10T11:24:32.231Z,14.60
2023-03-10T11:29:48.644Z,14.80
2023-03-10T11:34:54.015Z,14.90
2023-03-10T11:40:12.037Z,15.00
2023-03-10T11:45:31.894Z,15.20
2023-03-10T11:50:42.563Z,15.30
2023-03-10T11:55:47.693Z,15.40
2023-03-10T12:00:52.773Z,15.40
2023-03-10T12:05:58.541Z,15.50
2023-03-10T12:11:05.755Z,15.60
2023-03-10T12:16:14.419Z,15.70
2023-03-10T12:21:20.987Z,15.80
2023-03-10T12:27:00.965Z,15.80
2023-03-10T12:32:04.631Z,15.70
2023-03-10T12:37:10.194Z,15.60
2023-03-10T12:42:31.069Z,15.50
2023-03-10T12:47:56.931Z,15.40
2023-03-10T12:53:09.173Z,15.50
2023-03-10T12:58:18.591Z,15.60
2023-03-10T13:03:30.261Z,15.70
2023-03-10T13:08:43.552Z,15.70
2023-03-10T13:13:52.742Z,15.80
2023-03-10T13:18:56.085Z,15.90
2023-03-10T13:24:00.208Z,16.00
2023-03-10T13:29:06.009Z,16.00
2023-03-10T13:34:20.061Z,15.90
2023-03-10T13:39:27.338Z,15.90
2023-03-10T13:44:35.442Z,15.80
2023-03-10T13:49:38.521Z,15.80
2023-03-10T13:54:42.667Z,15.80
2023-03-10T13:59:48.388Z,15.80
2023-03-10T14:04:52.825Z,15.70
2023-03-10T14:10:20.413Z,15.60
2023-03-10T14:15:27.407Z,15.50
2023-03-10T14:20:31.966Z,15.40
2023-03-10T14:25:35.314Z,15.40
2023-03-10T14:30:40.336Z,15.30
2023-03-10T14:35:45.996Z,15.30
2023-03-10T14:40:51.617Z,15.20
2023-03-10T14:45:58.748Z,15.10
2023-03-10T14:51:02.209Z,15.10
2023-03-10T14:56:05.625Z,15.00
2023-03-10T15:01:10.164Z,15.00
2023-03-10T15:06:14.174Z,14.90
2023-03-10T15:11:30.381Z,14.90
2023-03-10T15:16:40.347Z,14.80
2023-03-10T15:21:43.443Z,14.70
2023-03-10T15:26:48.179Z,14.60
2023-03-10T15:31:52.874Z,14.40
2023-03-10T15:36:56.506Z,14.30
2023-03-10T15:41:59.665Z,14.20
2023-03-10T15:47:04.169Z,14.10
2023-03-10T15:52:07.275Z,14.00
2023-03-10T15:57:10.417Z,13.90
2023-03-10T16:02:15.748Z,13.80
2023-03-10T16:07:18.895Z,13.60
2023-03-10T16:12:23.419Z,13.50
2023-03-10T16:17:30.350Z,13.50
2023-03-10T16:22:33.463Z,13.40
2023-03-10T16:27:36.773Z,13.40
2023-03-10T16:32:41.380Z,13.30
2023-03-10T16:37:44.770Z,13.20
2023-03-10T16:42:47.886Z,13.10
2023-03-10T16:47:52.454Z,13.10
2023-03-10T16:52:56.787Z,13.00
2023-03-10T16:57:59.993Z,12.90
2023-03-10T17:03:04.798Z,12.90
2023-03-10T17:08:08.678Z,12.90
2023-03-10T17:13:11.751Z,12.90
2023-03-10T17:18:17.358Z,12.80
2023-03-10T17:23:22.304Z,12.80
2023-03-10T17:28:25.386Z,12.80
2023-03-10T17:33:29.820Z,12.80
2023-03-10T17:38:33.096Z,12.50
2023-03-10T17:43:37.105Z,12.20
2023-03-10T17:48:41.865Z,12.00
2023-03-10T17:53:45.475Z,11.80
2023-03-10T17:58:48.867Z,11.70
2023-03-10T18:03:53.562Z,11.60
2023-03-10T18:08:58.133Z,11.50
2023-03-10T18:14:03.611Z,11.40
2023-03-10T18:19:11.135Z,11.40
2023-03-10T18:24:14.616Z,11.30
2023-03-10T18:29:18.276Z,11.30
2023-03-10T18:34:22.739Z,11.20
2023-03-10T18:39:26.110Z,11.20
2023-03-10T18:44:29.181Z,11.10
2023-03-10T18:49:33.615Z,11.00
2023-03-10T18:54:36.724Z,10.90
2023-03-10T18:59:39.881Z,10.80
2023-03-10T19:04:47.691Z,10.70
2023-03-10T19:09:54.958Z,10.60
2023-03-10T19:14:59.390Z,10.50
2023-03-10T19:20:05.175Z,10.50
2023-03-10T19:25:10.695Z,10.40
2023-03-10T19:30:16.313Z,10.30
2023-03-10T19:35:20.958Z,10.30
2023-03-10T19:40:24.223Z,10.20
2023-03-10T19:45:27.367Z,10.10
2023-03-10T19:50:31.958Z,10.10
2023-03-10T19:55:35.374Z,10.10
2023-03-10T20:00:38.520Z,10.10
2023-03-10T20:05:43.562Z,10.00
2023-03-10T20:10:46.816Z,10.00
2023-03-10T20:15:50.024Z,10.00
2023-03-10T20:20:54.525Z,9.90
2023-03-10T20:26:01.801Z,9.80
2023-03-10T20:31:05.026Z,9.80
2023-03-10T20:36:13.861Z,9.80
2023-03-10T20:41:18.726Z,9.80
2023-03-10T20:46:22.896Z,9.80
2023-03-10T20:51:27.476Z,9.80
2023-03-10T20:56:31.551Z,9.90
2023-03-10T21:01:39.474Z,9.80
2023-03-10T21:06:43.922Z,9.90
2023-03-10T21:11:46.985Z,9.90
2023-03-10T21:16:50.164Z,9.70
2023-03-10T21:21:54.883Z,9.70
2023-03-10T21:26:58.074Z,9.60
2023-03-10T21:32:01.333Z,9.40
2023-03-10T21:37:06.207Z,9.40
2023-03-10T21:42:09.387Z,9.30
2023-03-10T21:47:12.559Z,9.20
2023-03-10T21:52:17.524Z,9.20
2023-03-10T21:57:20.818Z,9.20
2023-03-10T22:02:27.950Z,9.10
2023-03-10T22:07:32.487Z,8.90
2023-03-10T22:12:35.895Z,8.70
2023-03-10T22:17:39.149Z,8.40
2023-03-10T22:22:43.614Z,8.20
2023-03-10T22:27:50.472Z,8.00
2023-03-10T22:32:53.743Z,7.80
2023-03-10T22:37:58.228Z,7.50
2023-03-10T22:43:01.334Z,7.30
2023-03-10T22:48:06.670Z,7.00
2023-03-10T22:53:15.664Z,6.90
2023-03-10T22:58:18.821Z,6.70
2023-03-10T23:03:22.026Z,6.70
2023-03-10T23:08:26.519Z,6.70
2023-03-10T23:13:29.626Z,6.60
2023-03-10T23:18:32.752Z,6.60
2023-03-10T23:23:39.249Z,6.60
2023-03-10T23:28:42.370Z,6.60
2023-03-10T23:33:45.866Z,6.70
2023-03-10T23:38:50.363Z,6.70
2023-03-10T23:43:53.602Z,6.70
2023-03-10T23:48:56.674Z,6.60
2023-03-10T23:54:01.377Z,6.60
2023-03-10T23:59:04.772Z,6.60
